Time;durP1;ratioP1;P1;durP2;ratioP2;P2;SDS_P1;SDS_P2;PMS_P1;PMS_P2;Temp;Humidity;BMP_temperature;BMP_pressure;BME280_temperature;BME280_humidity;BME280_pressure;Samples;Min_cycle;Max_cycle;Signal;HPM_P1;HPM_P2
2022/03/04 00:01:23;;;;;;;;;19.50;18.25;;;;;20.91;38.07;101261.56;5068198;27;51284;-47
2022/03/04 00:03:49;;;;;;;;;21.50;21.50;;;;;20.89;38.25;101264.53;5062974;28;51574;-51
2022/03/04 00:06:14;;;;;;;;;19.00;19.00;;;;;20.88;38.67;101273.00;5067481;28;51196;-52
2022/03/04 00:08:40;;;;;;;;;19.25;18.00;;;;;20.88;38.48;101267.50;5066895;27;52193;-50
2022/03/04 00:11:05;;;;;;;;;18.75;15.50;;;;;20.86;38.37;101270.47;5063326;27;51188;-48
2022/03/04 00:13:32;;;;;;;;;20.25;20.00;;;;;20.85;38.26;101282.56;5058348;28;51032;-52
2022/03/04 00:15:57;;;;;;;;;20.25;19.00;;;;;20.85;38.55;101281.72;5059282;28;51041;-51
2022/03/04 00:18:24;;;;;;;;;19.75;18.75;;;;;20.83;38.21;101270.88;5056023;28;51198;-51
2022/03/04 00:20:49;;;;;;;;;17.50;17.25;;;;;20.81;38.40;101264.75;5063625;28;51198;-51
2022/03/04 00:23:15;;;;;;;;;25.00;21.50;;;;;20.80;38.09;101270.47;5058835;28;52036;-51
2022/03/04 00:25:40;;;;;;;;;18.25;17.75;;;;;20.79;38.25;101272.38;5066298;27;51174;-51
2022/03/04 00:28:06;;;;;;;;;20.00;16.50;;;;;20.77;38.24;101274.50;5066051;27;52574;-50
2022/03/04 00:30:31;;;;;;;;;25.50;20.75;;;;;20.77;38.08;101273.66;5065805;27;51193;-49
2022/03/04 00:32:57;;;;;;;;;22.25;19.75;;;;;20.76;38.22;101278.31;5056217;28;52714;-52
2022/03/04 00:35:23;;;;;;;;;20.00;18.00;;;;;20.74;38.60;101273.03;5068990;28;51132;-47
2022/03/04 00:37:49;;;;;;;;;20.25;20.00;;;;;20.74;38.61;101273.03;5064024;28;51115;-51
2022/03/04 00:40:14;;;;;;;;;21.00;20.00;;;;;20.73;38.52;101271.31;5064041;27;51477;-52
2022/03/04 00:42:40;;;;;;;;;20.75;17.25;;;;;20.71;38.29;101272.59;5058694;28;51698;-47
2022/03/04 00:45:06;;;;;;;;;17.75;15.00;;;;;20.71;38.71;101264.34;5062668;28;51153;-48
2022/03/04 00:47:31;;;;;;;;;17.50;16.75;;;;;20.71;38.51;101265.19;5071904;27;51024;-51
2022/03/04 00:49:58;;;;;;;;;20.25;16.75;;;;;20.69;38.61;101256.31;5057213;28;51197;-47
2022/03/04 00:52:23;;;;;;;;;20.50;19.00;;;;;20.69;38.64;101263.72;5066306;28;51783;-50
2022/03/04 00:54:49;;;;;;;;;21.75;20.00;;;;;20.69;38.32;101266.47;5057009;28;51300;-49
2022/03/04 00:57:15;;;;;;;;;24.25;22.75;;;;;20.67;38.52;101263.94;5065650;28;51212;-48
2022/03/04 00:59:40;;;;;;;;;22.25;18.25;;;;;20.66;38.07;101262.25;5070486;28;51164;-51
2022/03/04 01:02:05;;;;;;;;;21.25;18.50;;;;;20.66;38.42;101261.41;5065699;27;51090;-51
2022/03/04 01:04:31;;;;;;;;;20.50;20.25;;;;;20.65;38.55;101263.31;5070268;28;51115;-48
2022/03/04 01:06:56;;;;;;;;;20.50;18.75;;;;;20.65;38.49;101256.97;5078662;27;51079;-50
2022/03/04 01:09:22;;;;;;;;;24.00;20.25;;;;;20.64;38.54;101266.28;5076501;27;51381;-51
2022/03/04 01:11:47;;;;;;;;;22.75;20.25;;;;;20.63;38.34;101270.91;5068704;28;52530;-50
2022/03/04 01:14:13;;;;;;;;;23.75;18.50;;;;;20.63;38.23;101272.81;5068360;27;51063;-47
2022/03/04 01:16:38;;;;;;;;;19.75;19.25;;;;;20.63;38.43;101267.31;5074144;27;51030;-49
2022/03/04 01:19:04;;;;;;;;;19.50;17.50;;;;;20.62;38.53;101279.38;5067751;28;51293;-51
2022/03/04 01:21:30;;;;;;;;;23.25;20.25;;;;;20.61;38.72;101273.03;5064922;28;51128;-47
2022/03/04 01:23:55;;;;;;;;;25.25;19.25;;;;;20.61;38.11;101274.94;5068439;28;51185;-51
2022/03/04 01:26:21;;;;;;;;;23.75;21.25;;;;;20.60;38.60;101279.59;5071133;28;51186;-51
2022/03/04 01:28:46;;;;;;;;;23.00;21.25;;;;;20.59;38.68;101269.66;5066481;27;51297;-51
2022/03/04 01:31:12;;;;;;;;;22.25;21.00;;;;;20.58;38.57;101259.69;5069116;27;51868;-49
2022/03/04 01:33:38;;;;;;;;;26.00;21.75;;;;;20.59;38.27;101272.41;5057768;28;51116;-50
2022/03/04 01:36:04;;;;;;;;;21.75;19.50;;;;;20.59;38.44;101271.56;5066218;28;51218;-52
2022/03/04 01:38:30;;;;;;;;;22.25;19.50;;;;;20.58;38.78;101272.63;5072608;28;51138;-49
2022/03/04 01:40:55;;;;;;;;;22.50;21.75;;;;;20.57;38.33;101266.28;5066323;28;51843;-50
2022/03/04 01:43:20;;;;;;;;;21.75;20.50;;;;;20.57;38.25;101269.03;5058944;28;51135;-48
2022/03/04 01:45:46;;;;;;;;;23.25;21.75;;;;;20.56;38.31;101264.59;5061492;28;51104;-49
2022/03/04 01:48:13;;;;;;;;;26.25;21.00;;;;;20.56;38.40;101272.00;5076220;27;51328;-50
2022/03/04 01:50:38;;;;;;;;;24.00;22.75;;;;;20.56;38.42;101272.84;5064754;27;51218;-52
2022/03/04 01:53:04;;;;;;;;;22.75;21.75;;;;;20.55;38.22;101262.03;5076677;28;51131;-48
2022/03/04 01:55:29;;;;;;;;;25.00;22.00;;;;;20.54;38.45;101266.72;5065645;27;51607;-49
2022/03/04 01:57:54;;;;;;;;;23.75;19.75;;;;;20.55;38.52;101262.03;5063804;28;51268;-49
2022/03/04 02:00:20;;;;;;;;;24.25;22.00;;;;;20.54;38.60;101261.19;5065747;28;51167;-52
2022/03/04 02:02:45;;;;;;;;;23.50;20.75;;;;;20.53;38.46;101248.50;5063580;28;51238;-48
2022/03/04 02:05:15;;;;;;;;;22.75;21.75;;;;;20.53;38.65;101248.50;5077142;27;51611;-47
2022/03/04 02:07:41;;;;;;;;;29.00;22.00;;;;;20.52;38.39;101243.19;5059771;28;51086;-51
2022/03/04 02:10:08;;;;;;;;;23.00;20.50;;;;;20.52;38.80;101243.19;5057551;28;53254;-48
2022/03/04 02:12:35;;;;;;;;;26.25;24.75;;;;;20.51;38.25;101245.09;5060119;28;51440;-50
2022/03/04 02:15:00;;;;;;;;;28.50;24.75;;;;;20.50;38.43;101237.91;5068079;28;51169;-51
2022/03/04 02:17:26;;;;;;;;;22.50;22.50;;;;;20.50;38.42;101246.16;5066918;28;51159;-48
2022/03/04 02:19:53;;;;;;;;;25.00;24.25;;;;;20.50;38.42;101240.66;5072928;28;51990;-50
2022/03/04 02:22:18;;;;;;;;;27.00;23.50;;;;;20.49;38.50;101236.22;5062624;28;51427;-50
2022/03/04 02:24:43;;;;;;;;;24.25;22.50;;;;;20.49;38.32;101229.84;5060615;27;51165;-50
2022/03/04 02:27:09;;;;;;;;;20.50;20.00;;;;;20.48;38.51;101242.78;5062484;28;51354;-51
2022/03/04 02:29:34;;;;;;;;;24.25;21.25;;;;;20.49;38.52;101238.13;5077782;27;52007;-52
2022/03/04 02:32:01;;;;;;;;;25.00;21.75;;;;;20.49;38.66;101235.38;5063661;28;51232;-49
2022/03/04 02:34:26;;;;;;;;;23.75;22.25;;;;;20.47;38.69;101232.84;5067915;27;51112;-51
2022/03/04 02:36:52;;;;;;;;;23.00;18.75;;;;;20.46;38.66;101223.72;5068636;27;51476;-46
2022/03/04 02:39:18;;;;;;;;;26.75;25.25;;;;;20.46;38.46;101231.13;5063998;27;52662;-48
2022/03/04 02:41:43;;;;;;;;;26.00;21.50;;;;;20.45;38.32;101226.69;5064932;28;51421;-47
2022/03/04 02:44:11;;;;;;;;;26.75;23.50;;;;;20.45;38.74;101232.19;5071561;27;51233;-50
2022/03/04 02:46:37;;;;;;;;;27.50;23.50;;;;;20.45;38.52;101237.69;5068860;27;51180;-52
2022/03/04 02:49:04;;;;;;;;;29.25;27.00;;;;;20.44;38.51;101236.88;5066502;28;51875;-49
2022/03/04 02:51:30;;;;;;;;;21.50;20.25;;;;;20.44;38.60;101233.25;5067924;27;51139;-52
2022/03/04 02:53:55;;;;;;;;;23.00;20.50;;;;;20.43;38.55;101240.69;5072892;27;51111;-51
2022/03/04 02:56:20;;;;;;;;;19.25;15.75;;;;;20.44;38.15;101236.00;5056930;28;51409;-49
2022/03/04 02:58:46;;;;;;;;;24.00;23.75;;;;;20.42;38.49;101238.06;5071903;28;51779;-48
2022/03/04 03:01:11;;;;;;;;;22.00;20.75;;;;;20.41;38.67;101237.22;5059504;28;51379;-47
2022/03/04 03:03:37;;;;;;;;;20.75;20.75;;;;;20.41;38.60;101241.88;5068540;28;51211;-51
2022/03/04 03:06:03;;;;;;;;;23.75;22.75;;;;;20.41;38.29;101244.63;5071431;28;51128;-50
2022/03/04 03:08:29;;;;;;;;;27.00;22.75;;;;;20.41;38.56;101245.47;5072541;28;51862;-48
2022/03/04 03:10:55;;;;;;;;;26.00;20.75;;;;;20.40;38.77;101241.03;5065063;28;51053;-51
2022/03/04 03:13:20;;;;;;;;;16.75;16.50;;;;;20.39;38.89;101239.34;5069737;28;51257;-48
2022/03/04 03:15:46;;;;;;;;;19.50;18.75;;;;;20.39;38.50;101239.34;5065810;28;51028;-51
2022/03/04 03:18:12;;;;;;;;;23.50;20.50;;;;;20.39;38.55;101241.25;5056073;28;51183;-51
2022/03/04 03:20:37;;;;;;;;;21.00;19.75;;;;;20.39;38.80;101241.25;5067987;28;51145;-50
2022/03/04 03:23:03;;;;;;;;;25.00;20.75;;;;;20.38;38.59;101242.31;5071838;28;51752;-49
2022/03/04 03:25:28;;;;;;;;;23.00;22.00;;;;;20.37;38.78;101237.88;5066958;27;51040;-51
2022/03/04 03:27:53;;;;;;;;;24.00;21.00;;;;;20.36;38.89;101245.28;5075621;27;51123;-50
2022/03/04 03:30:19;;;;;;;;;24.00;17.75;;;;;20.37;38.73;101243.38;5060810;27;51112;-50
2022/03/04 03:32:44;;;;;;;;;21.50;17.75;;;;;20.36;38.81;101250.78;5056828;28;51172;-50
2022/03/04 03:35:10;;;;;;;;;19.75;18.25;;;;;20.36;38.77;101247.19;5064340;28;51279;-51
2022/03/04 03:37:39;;;;;;;;;25.00;19.50;;;;;20.35;38.83;101249.09;5068411;28;53071;-51
2022/03/04 03:40:06;;;;;;;;;22.50;19.75;;;;;20.35;38.63;101249.09;5058882;28;51483;-50
2022/03/04 03:42:31;;;;;;;;;25.00;21.50;;;;;20.34;38.59;101255.66;5064174;27;51445;-51
2022/03/04 03:44:57;;;;;;;;;23.50;18.75;;;;;20.34;39.07;101247.41;5071760;27;51084;-51
2022/03/04 03:47:22;;;;;;;;;17.75;17.00;;;;;20.34;38.80;101252.06;5065442;28;51131;-47
2022/03/04 03:49:47;;;;;;;;;18.25;18.25;;;;;20.34;38.90;101257.56;5071980;28;51244;-48
2022/03/04 03:52:13;;;;;;;;;20.00;20.00;;;;;20.33;38.74;101250.38;5065413;28;51133;-51
2022/03/04 03:54:39;;;;;;;;;20.25;19.50;;;;;20.33;38.68;101250.38;5062083;27;51376;-47
2022/03/04 03:57:04;;;;;;;;;18.25;16.50;;;;;20.32;38.83;101251.41;5061336;28;50950;-49
2022/03/04 03:59:30;;;;;;;;;19.50;18.00;;;;;20.31;38.83;101256.06;5058586;28;51122;-49
2022/03/04 04:01:55;;;;;;;;;19.25;18.25;;;;;20.31;38.52;101258.81;5067335;27;51085;-48
2022/03/04 04:04:21;;;;;;;;;22.50;19.50;;;;;20.31;38.61;101257.97;5055981;28;50903;-47
2022/03/04 04:06:46;;;;;;;;;20.25;17.50;;;;;20.30;38.78;101259.03;5062824;28;52995;-48
2022/03/04 04:09:12;;;;;;;;;17.25;16.75;;;;;20.29;38.38;101249.94;5066512;28;50907;-51
2022/03/04 04:11:39;;;;;;;;;19.50;19.50;;;;;20.30;38.70;101262.63;5065534;27;51087;-47
2022/03/04 04:14:05;;;;;;;;;20.75;18.75;;;;;20.29;38.61;101265.59;5070328;28;51264;-50
2022/03/04 04:16:31;;;;;;;;;27.00;23.75;;;;;20.29;38.94;101262.84;5057852;28;51087;-51
2022/03/04 04:18:57;;;;;;;;;16.25;15.75;;;;;20.28;38.81;101258.41;5058611;27;51175;-46
2022/03/04 04:21:24;;;;;;;;;27.50;21.25;;;;;20.27;38.32;101254.81;5056274;27;51216;-49
2022/03/04 04:23:49;;;;;;;;;26.25;19.75;;;;;20.28;39.08;101263.91;5056754;28;51796;-49
2022/03/04 04:26:15;;;;;;;;;18.50;15.50;;;;;20.27;38.74;101264.97;5074992;27;51724;-50
2022/03/04 04:28:40;;;;;;;;;20.00;18.50;;;;;20.26;38.59;101266.03;5070027;27;50988;-51
2022/03/04 04:31:05;;;;;;;;;18.75;15.75;;;;;20.27;38.86;101262.22;5069168;27;51155;-51
2022/03/04 04:33:31;;;;;;;;;19.25;16.75;;;;;20.26;38.74;101268.78;5077915;28;51321;-51
2022/03/04 04:35:57;;;;;;;;;23.50;20.25;;;;;20.25;38.71;101270.69;5064919;27;51744;-50
2022/03/04 04:38:22;;;;;;;;;20.50;19.00;;;;;20.25;38.71;101272.59;5071820;28;51161;-52
2022/03/04 04:40:48;;;;;;;;;20.75;19.75;;;;;20.24;38.81;101277.25;5059032;27;51106;-52
2022/03/04 04:43:13;;;;;;;;;24.75;22.00;;;;;20.24;38.75;101274.50;5073108;28;51199;-46
2022/03/04 04:45:38;;;;;;;;;18.25;16.50;;;;;20.24;38.96;101284.66;5066275;28;51078;-49
2022/03/04 04:48:04;;;;;;;;;23.25;20.00;;;;;20.23;38.71;101282.97;5062049;28;51104;-51
2022/03/04 04:50:29;;;;;;;;;19.50;17.00;;;;;20.22;38.50;101282.13;5069061;27;51573;-48
2022/03/04 04:52:55;;;;;;;;;20.25;18.00;;;;;20.23;38.82;101277.47;5067007;28;51142;-48
2022/03/04 04:55:20;;;;;;;;;24.00;18.75;;;;;20.21;38.78;101285.06;5065792;28;51811;-48
2022/03/04 04:57:45;;;;;;;;;21.00;17.25;;;;;20.21;38.69;101285.06;5070139;28;51032;-49
2022/03/04 05:00:11;;;;;;;;;21.25;18.50;;;;;20.22;38.84;101289.50;5076055;27;51187;-49
2022/03/04 05:02:37;;;;;;;;;18.75;17.50;;;;;20.21;38.70;101290.56;5068938;27;51116;-49
2022/03/04 05:05:03;;;;;;;;;21.50;17.25;;;;;20.19;38.75;101286.09;5057992;28;52496;-51
2022/03/04 05:07:29;;;;;;;;;21.00;16.50;;;;;20.21;38.91;101287.81;5070014;28;51002;-51
2022/03/04 05:09:54;;;;;;;;;24.75;19.25;;;;;20.19;38.72;101291.63;5067882;28;51212;-50
2022/03/04 05:12:19;;;;;;;;;21.00;20.50;;;;;20.19;38.76;101288.03;5062140;27;51020;-51
2022/03/04 05:14:45;;;;;;;;;22.25;20.75;;;;;20.19;38.68;101296.28;5058217;27;50994;-48
2022/03/04 05:17:10;;;;;;;;;19.75;18.25;;;;;20.18;38.65;101292.69;5068816;28;51176;-48
2022/03/04 05:19:35;;;;;;;;;20.00;16.50;;;;;20.16;38.69;101289.28;5069982;27;51024;-51
2022/03/04 05:22:01;;;;;;;;;21.25;19.75;;;;;20.18;38.90;101297.34;5069271;27;51238;-50
2022/03/04 05:24:26;;;;;;;;;23.25;19.00;;;;;20.16;38.80;101289.28;5068408;27;51744;-49
2022/03/04 05:26:51;;;;;;;;;21.50;17.50;;;;;20.15;38.89;101293.09;5059654;28;51226;-50
2022/03/04 05:29:17;;;;;;;;;18.00;18.00;;;;;20.16;38.47;101302.19;5074614;27;51118;-50
2022/03/04 05:31:43;;;;;;;;;21.25;18.25;;;;;20.14;38.72;101296.91;5069388;27;51233;-50
2022/03/04 05:34:10;;;;;;;;;23.25;20.00;;;;;20.14;39.07;101307.91;5066555;28;52284;-51
2022/03/04 05:36:37;;;;;;;;;18.50;15.50;;;;;20.14;39.09;101301.56;5066214;28;50989;-51
2022/03/04 05:39:04;;;;;;;;;23.00;20.25;;;;;20.13;38.47;101300.72;5070703;27;51041;-49
2022/03/04 05:41:29;;;;;;;;;20.25;19.50;;;;;20.13;38.77;101306.22;5066519;28;51503;-47
2022/03/04 05:43:55;;;;;;;;;21.25;19.50;;;;;20.13;38.84;101306.22;5063973;27;51090;-49
2022/03/04 05:46:20;;;;;;;;;20.25;19.75;;;;;20.12;38.72;101306.44;5059485;28;51025;-47
2022/03/04 05:48:46;;;;;;;;;25.25;21.50;;;;;20.13;38.69;101308.97;5069606;28;51094;-52
2022/03/04 05:51:11;;;;;;;;;19.00;18.75;;;;;20.12;38.64;101304.53;5064897;28;51005;-46
2022/03/04 05:53:37;;;;;;;;;22.75;19.50;;;;;20.11;39.07;101301.97;5073932;28;51885;-52
2022/03/04 05:56:05;;;;;;;;;22.00;20.00;;;;;20.09;38.61;101302.19;5070349;28;51057;-48
2022/03/04 05:58:31;;;;;;;;;23.50;20.75;;;;;20.11;38.72;101307.47;5069681;28;51154;-51
2022/03/04 06:00:56;;;;;;;;;23.75;22.25;;;;;20.11;38.91;101307.47;5072459;27;51048;-48
2022/03/04 06:03:21;;;;;;;;;22.50;19.75;;;;;20.10;39.08;101314.03;5057338;28;51118;-49
2022/03/04 06:05:47;;;;;;;;;19.25;16.00;;;;;20.10;38.74;101322.28;5068432;28;51181;-51
2022/03/04 06:08:13;;;;;;;;;21.25;21.00;;;;;20.09;38.91;101321.44;5073740;28;51152;-48
2022/03/04 06:10:38;;;;;;;;;29.25;28.50;;;;;20.11;38.97;101323.97;5060337;28;51153;-49
2022/03/04 06:13:04;;;;;;;;;34.75;32.25;;;;;20.10;38.58;101319.53;5061686;28;51851;-50
2022/03/04 06:15:29;;;;;;;;;40.50;33.00;;;;;20.09;38.77;101326.94;5064219;28;51172;-47
2022/03/04 06:17:54;;;;;;;;;52.25;41.25;;;;;20.08;38.72;101324.38;5073290;27;51703;-48
2022/03/04 06:20:20;;;;;;;;;45.50;35.50;;;;;20.07;38.45;101337.28;5062080;27;50957;-51
2022/03/04 06:22:46;;;;;;;;;40.25;31.75;;;;;20.05;38.52;101336.66;5057143;28;51100;-52
2022/03/04 06:25:14;;;;;;;;;48.50;38.50;;;;;20.04;38.12;101345.97;5064240;28;51014;-48
2022/03/04 06:28:00;;;;;;;;;41.75;36.75;;;;;20.02;38.15;101339.84;5059952;28;51238;-49
2022/03/04 06:30:32;;;;;;;;;46.75;36.50;;;;;20.00;38.27;101350.16;5065730;27;51384;-52
2022/03/04 06:35:42;;;;;;;;;39.50;32.75;;;;;19.96;38.33;101339.81;5068581;28;53083;-48
2022/03/04 06:38:09;;;;;;;;;41.50;34.25;;;;;19.93;38.41;101338.31;5062838;28;51718;-49
2022/03/04 06:40:36;;;;;;;;;41.00;34.25;;;;;19.92;38.34;101333.88;5062116;28;50969;-51
2022/03/04 06:43:02;;;;;;;;;40.75;34.25;;;;;19.95;38.72;101338.13;5070653;27;51139;-47
2022/03/04 06:45:27;;;;;;;;;35.75;29.50;;;;;20.01;38.65;101345.50;5056692;28;51064;-52
2022/03/04 06:47:53;;;;;;;;;40.50;34.00;;;;;20.08;38.54;101346.41;5067469;28;51177;-55
2022/03/04 06:50:18;;;;;;;;;35.50;30.25;;;;;20.19;38.68;101360.38;5062730;27;51627;-53
2022/03/04 06:52:44;;;;;;;;;28.25;27.50;;;;;20.28;38.47;101360.19;5067902;27;51893;-53
2022/03/04 06:55:10;;;;;;;;;28.00;25.25;;;;;20.37;38.56;101356.19;5068168;28;51284;-50
2022/03/04 06:57:35;;;;;;;;;26.50;25.25;;;;;20.46;38.50;101360.47;5060013;27;51845;-51
2022/03/04 07:00:03;;;;;;;;;26.00;22.00;;;;;20.54;38.17;101363.03;5060717;28;51013;-52
2022/03/04 07:02:28;;;;;;;;;24.50;21.00;;;;;20.63;38.21;101361.75;5060463;28;52775;-49
2022/03/04 07:04:54;;;;;;;;;23.25;21.00;;;;;20.71;38.76;101372.56;5064649;27;51091;-50
2022/03/04 07:07:19;;;;;;;;;20.75;15.75;;;;;20.75;38.93;101373.00;5063283;28;51541;-49
2022/03/04 07:09:45;;;;;;;;;22.75;21.25;;;;;20.74;38.74;101368.56;5062643;27;51035;-51
2022/03/04 07:12:10;;;;;;;;;17.75;16.00;;;;;20.74;39.12;101371.31;5060229;28;51433;-48
2022/03/04 07:14:36;;;;;;;;;26.50;22.25;;;;;20.73;39.22;101372.34;5061442;27;51178;-52
2022/03/04 07:17:02;;;;;;;;;21.00;18.00;;;;;20.72;39.74;101378.91;5064569;27;51606;-53
2022/03/04 07:19:27;;;;;;;;;19.00;18.00;;;;;20.72;39.59;101371.50;5064190;28;51314;-50
2022/03/04 07:21:52;;;;;;;;;22.25;20.00;;;;;20.74;40.16;101385.06;5063141;27;51119;-50
2022/03/04 07:24:18;;;;;;;;;19.25;17.00;;;;;20.74;40.00;101379.56;5063821;28;51147;-50
2022/03/04 07:26:43;;;;;;;;;15.00;14.75;;;;;20.72;40.07;101388.00;5058223;27;51591;-49
2022/03/04 07:29:08;;;;;;;;;17.25;16.00;;;;;20.72;40.09;101398.19;5058891;27;51439;-48
2022/03/04 07:31:34;;;;;;;;;21.75;17.50;;;;;20.73;40.34;101392.47;5055101;28;51671;-51
2022/03/04 07:33:59;;;;;;;;;20.25;19.00;;;;;20.80;40.39;101394.38;5060558;28;51126;-49
2022/03/04 07:36:25;;;;;;;;;18.75;17.00;;;;;20.87;40.67;101392.47;5065737;27;51135;-52
2022/03/04 07:38:51;;;;;;;;;24.25;18.75;;;;;20.88;40.58;101397.78;5068140;28;51034;-50
2022/03/04 07:41:16;;;;;;;;;25.00;20.25;;;;;20.86;40.63;101388.88;5058046;27;52812;-52
2022/03/04 07:43:42;;;;;;;;;22.75;18.75;;;;;20.86;40.38;101388.88;5055927;28;51683;-53
2022/03/04 07:46:08;;;;;;;;;23.25;20.75;;;;;20.86;40.07;101391.63;5066761;28;51141;-48
2022/03/04 07:48:33;;;;;;;;;24.75;21.25;;;;;20.87;40.12;101396.09;5065127;27;51027;-50
2022/03/04 07:50:58;;;;;;;;;25.25;22.25;;;;;20.90;40.20;101401.16;5061032;28;51718;-49
2022/03/04 07:53:24;;;;;;;;;22.75;20.25;;;;;20.93;40.35;101408.13;5060481;28;51243;-47
2022/03/04 07:55:49;;;;;;;;;21.25;19.00;;;;;20.93;40.51;101397.97;5073732;27;52400;-51
2022/03/04 07:58:14;;;;;;;;;26.25;21.75;;;;;20.94;40.97;101402.41;5075967;27;50904;-51
2022/03/04 08:00:40;;;;;;;;;15.75;14.75;;;;;20.96;40.73;101402.22;5075648;27;51039;-50
2022/03/04 08:03:05;;;;;;;;;20.75;20.00;;;;;21.01;41.06;101411.53;5075919;27;51000;-49
2022/03/04 08:05:30;;;;;;;;;21.75;17.00;;;;;21.04;40.54;101407.50;5074729;28;51252;-51
2022/03/04 08:07:56;;;;;;;;;18.00;17.00;;;;;21.07;40.62;101412.59;5076117;28;50989;-46
2022/03/04 08:10:21;;;;;;;;;22.50;17.00;;;;;21.08;40.71;101408.78;5075277;27;51913;-49
2022/03/04 08:12:46;;;;;;;;;21.75;20.50;;;;;21.12;40.92;101411.97;5075876;27;51080;-53
2022/03/04 08:15:12;;;;;;;;;19.25;18.25;;;;;21.15;40.25;101409.63;5075603;27;50957;-51
2022/03/04 08:17:40;;;;;;;;;19.50;17.25;;;;;21.20;40.41;101412.59;5076123;27;51251;-53
2022/03/04 08:20:06;;;;;;;;;18.00;14.00;;;;;21.23;40.56;101420.41;5075332;27;51827;-52
2022/03/04 08:22:31;;;;;;;;;30.50;21.75;;;;;21.23;40.66;101419.56;5075159;27;51233;-51
2022/03/04 08:24:57;;;;;;;;;19.75;18.00;;;;;21.20;40.47;101426.38;5075917;27;51056;-53
2022/03/04 08:27:22;;;;;;;;;16.75;15.50;;;;;21.20;40.36;101431.88;5074126;27;50953;-53
2022/03/04 08:29:48;;;;;;;;;21.50;17.75;;;;;21.22;40.38;101432.50;5086606;27;50963;-48
2022/03/04 08:32:13;;;;;;;;;19.00;16.00;;;;;21.29;40.66;101435.31;5095593;27;51636;-53
2022/03/04 08:34:39;;;;;;;;;22.00;15.75;;;;;21.37;40.58;101431.47;5095794;27;50918;-52
2022/03/04 08:37:04;;;;;;;;;14.25;9.25;;;;;21.42;40.44;101432.53;5096289;27;50925;-53
2022/03/04 08:39:29;;;;;;;;;17.25;16.75;;;;;21.42;40.02;101431.66;5095386;27;50966;-50
2022/03/04 08:41:55;;;;;;;;;19.25;16.50;;;;;21.41;40.29;101439.09;5095549;27;51473;-51
2022/03/04 08:44:20;;;;;;;;;18.00;17.00;;;;;21.41;39.63;101432.75;5095879;27;51147;-53
2022/03/04 08:46:47;;;;;;;;;18.00;18.00;;;;;21.42;40.39;101437.19;5095782;27;51224;-51
2022/03/04 08:49:13;;;;;;;;;22.25;18.25;;;;;21.39;40.70;101441.22;5095569;27;52621;-51
2022/03/04 08:51:38;;;;;;;;;20.00;17.75;;;;;21.38;40.40;101441.44;5095377;27;51153;-51
2022/03/04 08:54:06;;;;;;;;;19.75;16.25;;;;;21.37;40.37;101443.34;5095466;27;51129;-51
2022/03/04 08:56:32;;;;;;;;;21.00;17.25;;;;;21.38;39.69;101445.03;5095343;27;50895;-52
2022/03/04 08:58:57;;;;;;;;;16.50;15.50;;;;;21.43;39.85;101447.16;5095475;27;50974;-51
2022/03/04 09:01:22;;;;;;;;;16.50;15.50;;;;;21.50;40.02;101446.09;5095327;27;51080;-52
2022/03/04 09:03:48;;;;;;;;;19.00;17.25;;;;;21.54;40.20;101443.72;5095579;27;51225;-51
2022/03/04 09:06:13;;;;;;;;;20.75;20.00;;;;;21.54;39.67;101447.34;5095551;27;50987;-55
2022/03/04 09:08:38;;;;;;;;;22.25;20.50;;;;;21.53;40.13;101445.63;5094949;27;53716;-55
2022/03/04 09:11:04;;;;;;;;;22.50;17.50;;;;;21.52;39.62;101454.13;5095261;27;50862;-52
2022/03/04 09:13:32;;;;;;;;;19.50;15.75;;;;;21.51;39.96;101455.19;5095548;27;50979;-49
2022/03/04 09:15:57;;;;;;;;;22.50;17.50;;;;;21.49;39.64;101451.81;5095709;27;51127;-52
2022/03/04 09:18:23;;;;;;;;;20.25;18.50;;;;;21.45;39.67;101448.63;5098932;27;51078;-53
2022/03/04 09:20:48;;;;;;;;;25.25;20.25;;;;;21.44;40.05;101448.84;5091218;27;51066;-52
2022/03/04 09:23:13;;;;;;;;;19.25;18.25;;;;;21.42;39.84;101448.22;5078522;27;51047;-49
2022/03/04 09:25:39;;;;;;;;;21.50;15.75;;;;;21.42;40.44;101453.72;5078337;27;51312;-54
2022/03/04 09:28:04;;;;;;;;;22.75;20.00;;;;;21.48;40.35;101452.88;5078198;27;51041;-52
2022/03/04 09:30:33;;;;;;;;;20.25;16.75;;;;;21.52;39.97;101451.38;5095442;27;51115;-50
2022/03/04 09:32:58;;;;;;;;;21.00;17.00;;;;;21.55;39.94;101448.19;5097042;27;51270;-51
2022/03/04 09:35:24;;;;;;;;;20.25;18.75;;;;;21.57;39.68;101451.56;5099030;27;50900;-51
2022/03/04 09:37:49;;;;;;;;;20.00;19.00;;;;;21.58;39.98;101442.25;5098324;27;50947;-51
2022/03/04 09:40:15;;;;;;;;;19.50;17.75;;;;;21.58;39.78;101451.38;5098253;27;50904;-53
2022/03/04 09:42:41;;;;;;;;;25.00;21.50;;;;;21.55;39.82;101448.19;5098326;27;51194;-53
2022/03/04 09:45:07;;;;;;;;;26.25;22.25;;;;;21.53;39.79;101453.91;5098375;27;51393;-52
2022/03/04 09:47:32;;;;;;;;;23.50;22.50;;;;;21.50;40.03;101451.59;5098097;27;52110;-50
2022/03/04 09:49:58;;;;;;;;;24.00;20.25;;;;;21.49;39.49;101447.16;5098272;27;51120;-53
2022/03/04 09:52:24;;;;;;;;;23.25;21.75;;;;;21.50;40.03;101453.50;5098207;27;51050;-52
2022/03/04 09:54:51;;;;;;;;;21.25;20.75;;;;;21.54;39.62;101457.50;5098103;27;51391;-50
2022/03/04 09:57:17;;;;;;;;;20.25;18.25;;;;;21.61;39.40;101458.34;5097904;27;50939;-53
2022/03/04 09:59:43;;;;;;;;;22.50;22.00;;;;;21.67;39.97;101460.22;5098016;27;51032;-50
2022/03/04 10:02:11;;;;;;;;;20.50;20.00;;;;;21.70;39.52;101451.56;5097642;27;51084;-52
2022/03/04 10:04:38;;;;;;;;;25.50;21.50;;;;;21.71;39.51;101457.91;5098019;27;51235;-51
2022/03/04 10:07:11;;;;;;;;;23.50;21.25;;;;;21.70;40.10;101450.72;5097498;27;52743;-51
2022/03/04 10:09:45;;;;;;;;;24.00;19.00;;;;;21.67;40.15;101460.22;5097881;27;51446;-53
2022/03/04 10:12:13;;;;;;;;;23.75;22.00;;;;;21.66;39.50;101455.78;5097230;27;51054;-51
2022/03/04 10:15:04;;;;;;;;;27.00;24.25;;;;;21.66;39.72;101464.06;5098010;27;51317;-52
2022/03/04 10:17:32;;;;;;;;;26.75;22.00;;;;;21.67;39.18;101462.16;5097335;27;52608;-51
2022/03/04 10:19:59;;;;;;;;;25.00;20.75;;;;;21.67;38.93;101454.72;5097719;27;51469;-52
2022/03/04 10:22:42;;;;;;;;;22.00;22.00;;;;;21.66;39.03;101450.28;5077170;27;51012;-53
2022/03/04 10:25:14;;;;;;;;;26.50;21.75;;;;;21.70;39.49;101456.22;5076593;28;51141;-53
2022/03/04 10:27:39;;;;;;;;;22.50;22.50;;;;;21.72;39.85;101460.44;5076681;28;51032;-50
2022/03/04 10:30:05;;;;;;;;;21.50;20.50;;;;;21.71;39.65;101453.25;5090454;27;51113;-53
2022/03/04 10:32:32;;;;;;;;;28.25;24.75;;;;;21.72;39.50;101459.59;5097089;27;51203;-53
2022/03/04 10:35:05;;;;;;;;;23.25;21.50;;;;;21.70;40.06;101464.50;5097559;27;51268;-53
2022/03/04 10:37:52;;;;;;;;;22.00;20.50;;;;;21.69;39.71;101457.28;5097012;27;51308;-51
2022/03/04 10:40:19;;;;;;;;;22.25;20.25;;;;;21.69;39.64;101463.66;5097298;27;51510;-51
2022/03/04 10:42:57;;;;;;;;;25.00;24.50;;;;;21.67;39.75;101460.22;5097544;27;51063;-51
2022/03/04 10:45:24;;;;;;;;;21.50;21.50;;;;;21.65;39.48;101467.88;5095945;27;51352;-52
2022/03/04 10:47:56;;;;;;;;;29.50;22.25;;;;;21.67;39.68;101462.16;5097144;27;52268;-49
2022/03/04 10:50:32;;;;;;;;;27.25;23.00;;;;;21.71;40.00;101468.94;5097127;27;50956;-50
2022/03/04 10:52:59;;;;;;;;;26.25;21.25;;;;;21.76;39.77;101469.13;5096850;27;51205;-51
2022/03/04 10:55:42;;;;;;;;;24.50;22.25;;;;;21.78;39.69;101461.47;5097102;27;50993;-51
2022/03/04 10:58:17;;;;;;;;;23.00;21.50;;;;;21.79;39.76;101466.81;5112438;27;51114;-51
2022/03/04 11:00:47;;;;;;;;;28.00;23.75;;;;;21.80;40.11;101459.38;5096793;27;51138;-50
2022/03/04 11:03:21;;;;;;;;;30.25;25.25;;;;;21.79;39.73;101457.69;5096929;27;51124;-48
2022/03/04 11:05:48;;;;;;;;;23.50;20.50;;;;;21.80;39.19;101462.13;5096600;27;51067;-52
2022/03/04 11:08:14;;;;;;;;;19.00;17.25;;;;;21.78;39.77;101453.22;5096700;27;51879;-53